sensor_id;sensor_type;location;lat;lon;timestamp;pressure;altitude;pressure_sealevel;temperature;humidity
18137;BME280;9194;42.632;23.298;2022-12-07T00:04:33;92526.47;;;5.20;100.00
18137;BME280;9194;42.632;23.298;2022-12-07T00:09:35;92521.50;;;5.12;100.00
18137;BME280;9194;42.632;23.298;2022-12-07T00:14:36;92509.34;;;5.06;100.00
18137;BME280;9194;42.632;23.298;2022-12-07T00:19:37;92505.19;;;5.05;100.00
18137;BME280;9194;42.632;23.298;2022-12-07T00:24:45;92499.22;;;5.05;100.00
18137;BME280;9194;42.632;23.298;2022-12-07T00:29:48;92505.38;;;5.04;100.00
18137;BME280;9194;42.632;23.298;2022-12-07T00:34:52;92513.50;;;5.07;100.00
18137;BME280;9194;42.632;23.298;2022-12-07T00:39:54;92513.09;;;5.04;100.00
18137;BME280;9194;42.632;23.298;2022-12-07T00:44:55;92501.63;;;5.13;100.00
18137;BME280;9194;42.632;23.298;2022-12-07T00:49:56;92508.16;;;5.09;100.00
18137;BME280;9194;42.632;23.298;2022-12-07T00:54:58;92504.81;;;5.15;100.00
18137;BME280;9194;42.632;23.298;2022-12-07T00:59:59;92499.47;;;5.16;100.00
18137;BME280;9194;42.632;23.298;2022-12-07T01:05:01;92506.56;;;5.08;100.00
18137;BME280;9194;42.632;23.298;2022-12-07T01:10:03;92508.78;;;5.11;100.00
18137;BME280;9194;42.632;23.298;2022-12-07T01:15:04;92490.94;;;5.16;100.00
18137;BME280;9194;42.632;23.298;2022-12-07T01:20:07;92490.00;;;5.23;100.00
18137;BME280;9194;42.632;23.298;2022-12-07T01:25:10;92492.72;;;5.15;100.00
18137;BME280;9194;42.632;23.298;2022-12-07T01:30:12;92480.19;;;5.06;100.00
18137;BME280;9194;42.632;23.298;2022-12-07T01:35:13;92481.13;;;4.98;100.00
18137;BME280;9194;42.632;23.298;2022-12-07T01:40:15;92483.09;;;4.96;100.00
18137;BME280;9194;42.632;23.298;2022-12-07T01:45:39;92485.50;;;4.97;100.00
18137;BME280;9194;42.632;23.298;2022-12-07T01:50:42;92489.00;;;4.90;100.00
18137;BME280;9194;42.632;23.298;2022-12-07T01:55:46;92483.66;;;4.91;100.00
18137;BME280;9194;42.632;23.298;2022-12-07T02:00:49;92474.19;;;4.99;100.00
18137;BME280;9194;42.632;23.298;2022-12-07T02:05:51;92457.69;;;4.93;100.00
18137;BME280;9194;42.632;23.298;2022-12-07T02:10:54;92450.31;;;4.90;100.00
18137;BME280;9194;42.632;23.298;2022-12-07T02:21:45;92473.56;;;4.96;100.00
18137;BME280;9194;42.632;23.298;2022-12-07T02:43:08;92450.47;;;4.75;100.00
18137;BME280;9194;42.632;23.298;2022-12-07T02:48:13;92468.59;;;4.61;100.00
18137;BME280;9194;42.632;23.298;2022-12-07T03:03:42;92441.94;;;4.40;100.00
18137;BME280;9194;42.632;23.298;2022-12-07T03:08:57;92431.97;;;4.37;100.00
18137;BME280;9194;42.632;23.298;2022-12-07T03:19:35;92430.53;;;4.28;100.00
18137;BME280;9194;42.632;23.298;2022-12-07T03:24:52;92437.28;;;4.29;100.00
18137;BME280;9194;42.632;23.298;2022-12-07T03:30:01;92442.56;;;4.21;100.00
18137;BME280;9194;42.632;23.298;2022-12-07T03:35:27;92450.75;;;4.25;100.00
18137;BME280;9194;42.632;23.298;2022-12-07T03:40:40;92440.09;;;4.34;100.00
18137;BME280;9194;42.632;23.298;2022-12-07T03:46:04;92436.59;;;4.48;100.00
18137;BME280;9194;42.632;23.298;2022-12-07T03:51:17;92433.66;;;4.51;100.00
18137;BME280;9194;42.632;23.298;2022-12-07T03:56:22;92430.69;;;4.54;100.00
18137;BME280;9194;42.632;23.298;2022-12-07T04:01:23;92418.06;;;4.60;100.00
18137;BME280;9194;42.632;23.298;2022-12-07T04:06:25;92419.84;;;4.59;100.00
18137;BME280;9194;42.632;23.298;2022-12-07T04:11:26;92424.19;;;4.59;100.00
18137;BME280;9194;42.632;23.298;2022-12-07T04:16:27;92425.13;;;4.51;100.00
18137;BME280;9194;42.632;23.298;2022-12-07T04:21:29;92436.16;;;4.38;100.00
18137;BME280;9194;42.632;23.298;2022-12-07T04:26:30;92424.88;;;4.39;100.00
18137;BME280;9194;42.632;23.298;2022-12-07T04:31:32;92427.59;;;4.31;100.00
18137;BME280;9194;42.632;23.298;2022-12-07T04:36:33;92421.97;;;4.21;100.00
18137;BME280;9194;42.632;23.298;2022-12-07T04:41:35;92438.16;;;4.15;100.00
18137;BME280;9194;42.632;23.298;2022-12-07T04:46:36;92440.47;;;4.03;100.00
18137;BME280;9194;42.632;23.298;2022-12-07T04:51:37;92443.78;;;3.97;100.00
18137;BME280;9194;42.632;23.298;2022-12-07T04:56:39;92450.66;;;3.90;100.00
18137;BME280;9194;42.632;23.298;2022-12-07T05:01:40;92435.91;;;3.78;100.00
18137;BME280;9194;42.632;23.298;2022-12-07T05:06:45;92433.50;;;3.76;100.00
18137;BME280;9194;42.632;23.298;2022-12-07T05:11:48;92437.47;;;3.79;100.00
18137;BME280;9194;42.632;23.298;2022-12-07T05:16:50;92457.38;;;3.91;100.00
18137;BME280;9194;42.632;23.298;2022-12-07T05:21:51;92453.97;;;4.05;100.00
18137;BME280;9194;42.632;23.298;2022-12-07T05:26:53;92444.31;;;4.14;100.00
18137;BME280;9194;42.632;23.298;2022-12-07T05:31:54;92428.94;;;4.27;100.00
18137;BME280;9194;42.632;23.298;2022-12-07T05:36:55;92426.38;;;4.27;100.00
18137;BME280;9194;42.632;23.298;2022-12-07T05:41:57;92416.69;;;4.29;100.00
18137;BME280;9194;42.632;23.298;2022-12-07T05:47:14;92415.72;;;4.37;100.00
18137;BME280;9194;42.632;23.298;2022-12-07T05:52:16;92419.75;;;4.46;100.00
18137;BME280;9194;42.632;23.298;2022-12-07T05:57:17;92422.91;;;4.41;100.00
18137;BME280;9194;42.632;23.298;2022-12-07T06:02:19;92430.25;;;4.44;100.00
18137;BME280;9194;42.632;23.298;2022-12-07T06:07:20;92421.31;;;4.40;100.00
18137;BME280;9194;42.632;23.298;2022-12-07T06:12:21;92415.00;;;4.49;100.00
18137;BME280;9194;42.632;23.298;2022-12-07T06:17:34;92431.19;;;4.65;100.00
18137;BME280;9194;42.632;23.298;2022-12-07T06:22:37;92433.00;;;4.71;100.00
18137;BME280;9194;42.632;23.298;2022-12-07T06:27:38;92431.66;;;4.81;100.00
18137;BME280;9194;42.632;23.298;2022-12-07T06:32:39;92440.22;;;4.95;100.00
18137;BME280;9194;42.632;23.298;2022-12-07T06:37:41;92436.53;;;5.04;100.00
18137;BME280;9194;42.632;23.298;2022-12-07T06:42:42;92435.56;;;5.12;100.00
18137;BME280;9194;42.632;23.298;2022-12-07T06:47:43;92433.81;;;5.25;100.00
18137;BME280;9194;42.632;23.298;2022-12-07T06:52:45;92438.38;;;5.23;100.00
18137;BME280;9194;42.632;23.298;2022-12-07T06:57:46;92444.13;;;5.25;100.00
18137;BME280;9194;42.632;23.298;2022-12-07T07:02:47;92449.94;;;5.34;100.00
18137;BME280;9194;42.632;23.298;2022-12-07T07:07:49;92457.09;;;5.38;100.00
18137;BME280;9194;42.632;23.298;2022-12-07T07:12:50;92439.25;;;5.50;100.00
18137;BME280;9194;42.632;23.298;2022-12-07T07:17:52;92432.34;;;5.64;100.00
18137;BME280;9194;42.632;23.298;2022-12-07T07:22:54;92442.66;;;5.64;100.00
18137;BME280;9194;42.632;23.298;2022-12-07T07:27:56;92444.44;;;5.57;100.00
18137;BME280;9194;42.632;23.298;2022-12-07T07:32:58;92455.94;;;5.61;100.00
18137;BME280;9194;42.632;23.298;2022-12-07T07:38:00;92457.56;;;5.68;100.00
18137;BME280;9194;42.632;23.298;2022-12-07T07:43:02;92454.00;;;5.69;100.00
18137;BME280;9194;42.632;23.298;2022-12-07T07:48:04;92452.47;;;6.14;100.00
18137;BME280;9194;42.632;23.298;2022-12-07T07:53:05;92443.72;;;6.42;100.00
18137;BME280;9194;42.632;23.298;2022-12-07T07:58:06;92448.88;;;6.42;100.00
18137;BME280;9194;42.632;23.298;2022-12-07T08:03:08;92448.50;;;6.51;100.00
18137;BME280;9194;42.632;23.298;2022-12-07T08:08:09;92448.88;;;6.55;100.00
18137;BME280;9194;42.632;23.298;2022-12-07T08:13:10;92442.97;;;6.35;100.00
18137;BME280;9194;42.632;23.298;2022-12-07T08:18:13;92444.31;;;6.24;100.00
18137;BME280;9194;42.632;23.298;2022-12-07T08:23:14;92449.28;;;6.12;100.00
18137;BME280;9194;42.632;23.298;2022-12-07T08:28:16;92443.56;;;6.10;100.00
18137;BME280;9194;42.632;23.298;2022-12-07T08:33:17;92443.72;;;5.96;100.00
18137;BME280;9194;42.632;23.298;2022-12-07T08:38:19;92447.13;;;6.09;100.00
18137;BME280;9194;42.632;23.298;2022-12-07T08:43:20;92435.56;;;6.12;100.00
18137;BME280;9194;42.632;23.298;2022-12-07T08:48:21;92439.38;;;6.23;100.00
18137;BME280;9194;42.632;23.298;2022-12-07T08:53:25;92442.53;;;6.31;100.00
18137;BME280;9194;42.632;23.298;2022-12-07T08:58:26;92425.03;;;6.46;100.00
18137;BME280;9194;42.632;23.298;2022-12-07T09:03:28;92424.41;;;6.64;100.00
18137;BME280;9194;42.632;23.298;2022-12-07T09:08:35;92414.22;;;6.76;100.00
18137;BME280;9194;42.632;23.298;2022-12-07T09:13:37;92414.78;;;6.97;100.00
18137;BME280;9194;42.632;23.298;2022-12-07T09:18:38;92408.53;;;7.12;100.00
18137;BME280;9194;42.632;23.298;2022-12-07T09:23:41;92401.06;;;7.35;100.00
18137;BME280;9194;42.632;23.298;2022-12-07T09:28:43;92408.16;;;7.53;100.00
18137;BME280;9194;42.632;23.298;2022-12-07T09:33:44;92403.47;;;7.74;100.00
18137;BME280;9194;42.632;23.298;2022-12-07T09:38:46;92367.78;;;8.01;100.00
18137;BME280;9194;42.632;23.298;2022-12-07T09:43:47;92370.34;;;8.33;100.00
18137;BME280;9194;42.632;23.298;2022-12-07T09:48:49;92372.63;;;8.16;100.00
18137;BME280;9194;42.632;23.298;2022-12-07T09:53:53;92372.69;;;8.34;100.00
18137;BME280;9194;42.632;23.298;2022-12-07T09:58:58;92364.94;;;8.52;100.00
18137;BME280;9194;42.632;23.298;2022-12-07T10:04:30;92360.66;;;8.83;100.00
18137;BME280;9194;42.632;23.298;2022-12-07T10:09:31;92351.25;;;9.00;100.00
18137;BME280;9194;42.632;23.298;2022-12-07T10:14:39;92352.22;;;9.35;100.00
18137;BME280;9194;42.632;23.298;2022-12-07T10:19:40;92343.72;;;10.11;100.00
18137;BME280;9194;42.632;23.298;2022-12-07T10:24:43;92333.47;;;10.40;100.00
18137;BME280;9194;42.632;23.298;2022-12-07T10:29:49;92329.72;;;10.47;100.00
18137;BME280;9194;42.632;23.298;2022-12-07T10:35:18;92310.84;;;10.17;99.97
18137;BME280;9194;42.632;23.298;2022-12-07T10:45:25;92301.66;;;10.26;99.96
18137;BME280;9194;42.632;23.298;2022-12-07T10:50:47;92306.06;;;10.25;99.53
18137;BME280;9194;42.632;23.298;2022-12-07T11:07:18;92283.75;;;10.76;94.06
18137;BME280;9194;42.632;23.298;2022-12-07T11:18:09;92277.88;;;10.69;95.70
18137;BME280;9194;42.632;23.298;2022-12-07T11:29:22;92266.47;;;10.58;93.05
18137;BME280;9194;42.632;23.298;2022-12-07T11:34:00;92258.63;;;10.70;91.53
18137;BME280;9194;42.632;23.298;2022-12-07T11:39:30;92252.00;;;10.51;92.53
18137;BME280;9194;42.632;23.298;2022-12-07T11:45:02;92253.50;;;10.23;95.11
18137;BME280;9194;42.632;23.298;2022-12-07T11:50:30;92247.03;;;10.26;94.22
18137;BME280;9194;42.632;23.298;2022-12-07T12:06:23;92239.69;;;9.88;98.50
18137;BME280;9194;42.632;23.298;2022-12-07T12:12:06;92231.31;;;9.74;99.32
18137;BME280;9194;42.632;23.298;2022-12-07T12:22:39;92217.63;;;9.67;100.00
18137;BME280;9194;42.632;23.298;2022-12-07T12:27:45;92206.69;;;9.65;100.00
18137;BME280;9194;42.632;23.298;2022-12-07T12:32:48;92198.53;;;9.85;99.56
18137;BME280;9194;42.632;23.298;2022-12-07T12:37:52;92195.91;;;10.08;97.43
18137;BME280;9194;42.632;23.298;2022-12-07T12:42:55;92198.97;;;10.28;94.44
18137;BME280;9194;42.632;23.298;2022-12-07T12:53:28;92191.84;;;10.36;95.42
18137;BME280;9194;42.632;23.298;2022-12-07T12:58:33;92191.06;;;10.35;94.15
18137;BME280;9194;42.632;23.298;2022-12-07T13:03:35;92196.72;;;10.20;95.87
18137;BME280;9194;42.632;23.298;2022-12-07T13:08:40;92189.38;;;10.06;95.69
18137;BME280;9194;42.632;23.298;2022-12-07T13:13:42;92198.00;;;9.83;98.50
18137;BME280;9194;42.632;23.298;2022-12-07T13:18:44;92202.28;;;9.66;100.00
18137;BME280;9194;42.632;23.298;2022-12-07T13:29:14;92208.22;;;9.31;100.00
18137;BME280;9194;42.632;23.298;2022-12-07T13:34:36;92203.94;;;9.25;100.00
18137;BME280;9194;42.632;23.298;2022-12-07T13:39:50;92205.38;;;9.21;100.00
18137;BME280;9194;42.632;23.298;2022-12-07T13:44:52;92197.78;;;9.08;100.00
18137;BME280;9194;42.632;23.298;2022-12-07T13:49:55;92186.00;;;8.94;100.00
18137;BME280;9194;42.632;23.298;2022-12-07T13:54:58;92178.31;;;8.87;100.00
18137;BME280;9194;42.632;23.298;2022-12-07T14:00:00;92184.50;;;8.86;100.00
18137;BME280;9194;42.632;23.298;2022-12-07T14:05:25;92182.59;;;8.82;100.00
18137;BME280;9194;42.632;23.298;2022-12-07T14:10:38;92183.00;;;8.67;100.00
18137;BME280;9194;42.632;23.298;2022-12-07T14:15:40;92194.53;;;8.53;100.00
18137;BME280;9194;42.632;23.298;2022-12-07T14:20:44;92204.19;;;8.27;100.00
18137;BME280;9194;42.632;23.298;2022-12-07T14:25:47;92196.28;;;8.04;100.00
18137;BME280;9194;42.632;23.298;2022-12-07T14:30:49;92206.25;;;7.82;100.00
18137;BME280;9194;42.632;23.298;2022-12-07T14:35:50;92212.25;;;7.58;100.00
18137;BME280;9194;42.632;23.298;2022-12-07T14:40:56;92202.50;;;7.35;100.00
18137;BME280;9194;42.632;23.298;2022-12-07T14:46:20;92207.47;;;7.12;100.00
18137;BME280;9194;42.632;23.298;2022-12-07T14:51:21;92210.19;;;6.92;100.00
18137;BME280;9194;42.632;23.298;2022-12-07T14:56:24;92208.91;;;6.70;100.00
18137;BME280;9194;42.632;23.298;2022-12-07T15:01:25;92221.16;;;6.56;100.00
18137;BME280;9194;42.632;23.298;2022-12-07T15:06:26;92215.66;;;6.40;100.00
18137;BME280;9194;42.632;23.298;2022-12-07T15:11:28;92227.03;;;6.26;100.00
18137;BME280;9194;42.632;23.298;2022-12-07T15:16:29;92238.81;;;6.08;100.00
18137;BME280;9194;42.632;23.298;2022-12-07T15:21:30;92232.69;;;5.90;100.00
18137;BME280;9194;42.632;23.298;2022-12-07T15:26:32;92233.91;;;5.81;100.00
18137;BME280;9194;42.632;23.298;2022-12-07T15:31:34;92248.78;;;5.72;100.00
18137;BME280;9194;42.632;23.298;2022-12-07T15:36:36;92244.63;;;5.71;100.00
18137;BME280;9194;42.632;23.298;2022-12-07T15:41:37;92251.38;;;5.72;100.00
18137;BME280;9194;42.632;23.298;2022-12-07T15:46:40;92251.19;;;5.67;100.00
18137;BME280;9194;42.632;23.298;2022-12-07T15:51:43;92245.44;;;5.65;100.00
18137;BME280;9194;42.632;23.298;2022-12-07T15:56:44;92247.03;;;5.59;100.00
18137;BME280;9194;42.632;23.298;2022-12-07T16:01:45;92251.00;;;5.62;100.00
18137;BME280;9194;42.632;23.298;2022-12-07T16:06:47;92248.22;;;5.57;100.00
18137;BME280;9194;42.632;23.298;2022-12-07T16:11:48;92259.97;;;5.53;100.00
18137;BME280;9194;42.632;23.298;2022-12-07T16:16:51;92231.56;;;5.40;100.00
18137;BME280;9194;42.632;23.298;2022-12-07T16:21:52;92252.22;;;5.40;100.00
18137;BME280;9194;42.632;23.298;2022-12-07T16:26:54;92259.53;;;5.43;100.00
18137;BME280;9194;42.632;23.298;2022-12-07T16:31:55;92260.94;;;5.32;100.00
18137;BME280;9194;42.632;23.298;2022-12-07T16:36:57;92276.81;;;5.29;100.00
18137;BME280;9194;42.632;23.298;2022-12-07T16:41:58;92266.28;;;5.30;100.00
18137;BME280;9194;42.632;23.298;2022-12-07T16:46:59;92275.63;;;5.31;100.00
18137;BME280;9194;42.632;23.298;2022-12-07T16:52:01;92281.78;;;5.30;100.00
18137;BME280;9194;42.632;23.298;2022-12-07T16:57:03;92277.41;;;5.24;100.00
18137;BME280;9194;42.632;23.298;2022-12-07T17:02:04;92279.19;;;5.30;100.00
18137;BME280;9194;42.632;23.298;2022-12-07T17:07:08;92280.78;;;5.25;100.00
18137;BME280;9194;42.632;23.298;2022-12-07T17:12:09;92271.66;;;5.22;100.00
18137;BME280;9194;42.632;23.298;2022-12-07T17:17:10;92266.69;;;5.14;100.00
18137;BME280;9194;42.632;23.298;2022-12-07T17:22:12;92267.28;;;5.10;100.00
18137;BME280;9194;42.632;23.298;2022-12-07T17:27:13;92266.88;;;5.06;100.00
18137;BME280;9194;42.632;23.298;2022-12-07T17:32:14;92271.03;;;5.07;100.00
18137;BME280;9194;42.632;23.298;2022-12-07T17:37:16;92274.00;;;5.04;100.00
18137;BME280;9194;42.632;23.298;2022-12-07T17:42:17;92270.03;;;5.02;100.00
18137;BME280;9194;42.632;23.298;2022-12-07T17:47:38;92282.94;;;5.08;100.00
18137;BME280;9194;42.632;23.298;2022-12-07T17:52:40;92279.97;;;5.05;100.00
18137;BME280;9194;42.632;23.298;2022-12-07T17:57:59;92273.41;;;5.02;100.00
18137;BME280;9194;42.632;23.298;2022-12-07T18:03:01;92280.34;;;5.02;100.00
18137;BME280;9194;42.632;23.298;2022-12-07T18:08:02;92287.72;;;5.11;100.00
18137;BME280;9194;42.632;23.298;2022-12-07T18:13:04;92286.94;;;5.11;100.00
18137;BME280;9194;42.632;23.298;2022-12-07T18:18:23;92286.72;;;5.06;100.00
18137;BME280;9194;42.632;23.298;2022-12-07T18:23:25;92290.47;;;4.96;100.00
18137;BME280;9194;42.632;23.298;2022-12-07T18:28:26;92303.97;;;4.99;100.00
18137;BME280;9194;42.632;23.298;2022-12-07T18:33:28;92297.00;;;4.92;100.00
18137;BME280;9194;42.632;23.298;2022-12-07T18:38:30;92295.22;;;4.93;100.00
18137;BME280;9194;42.632;23.298;2022-12-07T18:43:31;92304.38;;;5.15;100.00
18137;BME280;9194;42.632;23.298;2022-12-07T18:48:32;92298.28;;;5.75;100.00
18137;BME280;9194;42.632;23.298;2022-12-07T18:53:35;92308.00;;;5.67;100.00
18137;BME280;9194;42.632;23.298;2022-12-07T18:58:37;92307.00;;;5.42;100.00
18137;BME280;9194;42.632;23.298;2022-12-07T19:03:38;92312.94;;;5.16;100.00
18137;BME280;9194;42.632;23.298;2022-12-07T19:08:39;92314.88;;;5.07;100.00
18137;BME280;9194;42.632;23.298;2022-12-07T19:13:40;92324.59;;;4.99;100.00
18137;BME280;9194;42.632;23.298;2022-12-07T19:18:42;92323.16;;;4.89;100.00
18137;BME280;9194;42.632;23.298;2022-12-07T19:23:43;92326.34;;;4.85;100.00
18137;BME280;9194;42.632;23.298;2022-12-07T19:28:44;92326.34;;;4.85;100.00
18137;BME280;9194;42.632;23.298;2022-12-07T19:33:46;92327.72;;;4.81;100.00
18137;BME280;9194;42.632;23.298;2022-12-07T19:38:49;92322.13;;;4.71;100.00
18137;BME280;9194;42.632;23.298;2022-12-07T19:43:51;92322.94;;;4.71;100.00
18137;BME280;9194;42.632;23.298;2022-12-07T19:48:52;92320.13;;;4.66;100.00
18137;BME280;9194;42.632;23.298;2022-12-07T19:53:55;92322.13;;;4.71;100.00
18137;BME280;9194;42.632;23.298;2022-12-07T19:59:00;92318.53;;;4.59;100.00
18137;BME280;9194;42.632;23.298;2022-12-07T20:04:04;92328.69;;;4.73;100.00
18137;BME280;9194;42.632;23.298;2022-12-07T20:09:07;92324.94;;;4.76;100.00
18137;BME280;9194;42.632;23.298;2022-12-07T20:14:10;92332.66;;;4.76;100.00
18137;BME280;9194;42.632;23.298;2022-12-07T20:19:15;92344.94;;;4.74;100.00
18137;BME280;9194;42.632;23.298;2022-12-07T20:24:19;92342.56;;;4.79;100.00
18137;BME280;9194;42.632;23.298;2022-12-07T20:29:23;92332.69;;;4.82;100.00
18137;BME280;9194;42.632;23.298;2022-12-07T20:34:25;92329.34;;;4.88;100.00
18137;BME280;9194;42.632;23.298;2022-12-07T20:39:26;92330.94;;;4.96;100.00
18137;BME280;9194;42.632;23.298;2022-12-07T20:44:27;92334.91;;;4.99;100.00
18137;BME280;9194;42.632;23.298;2022-12-07T20:49:29;92349.78;;;4.96;100.00
18137;BME280;9194;42.632;23.298;2022-12-07T20:54:32;92359.28;;;4.89;100.00
18137;BME280;9194;42.632;23.298;2022-12-07T20:59:34;92357.09;;;4.86;100.00
18137;BME280;9194;42.632;23.298;2022-12-07T21:04:35;92364.19;;;4.78;100.00
18137;BME280;9194;42.632;23.298;2022-12-07T21:09:36;92360.59;;;4.66;100.00
18137;BME280;9194;42.632;23.298;2022-12-07T21:14:39;92366.34;;;4.68;100.00
18137;BME280;9194;42.632;23.298;2022-12-07T21:19:41;92356.41;;;4.65;100.00
18137;BME280;9194;42.632;23.298;2022-12-07T21:24:42;92352.81;;;4.59;100.00
18137;BME280;9194;42.632;23.298;2022-12-07T21:29:44;92355.00;;;4.62;100.00
18137;BME280;9194;42.632;23.298;2022-12-07T21:34:46;92360.16;;;4.62;100.00
18137;BME280;9194;42.632;23.298;2022-12-07T21:39:49;92349.25;;;4.60;100.00
18137;BME280;9194;42.632;23.298;2022-12-07T21:44:50;92357.19;;;4.59;100.00
18137;BME280;9194;42.632;23.298;2022-12-07T21:49:51;92359.59;;;4.67;100.00
18137;BME280;9194;42.632;23.298;2022-12-07T21:54:53;92348.69;;;4.65;100.00
18137;BME280;9194;42.632;23.298;2022-12-07T21:59:54;92348.06;;;4.63;100.00
18137;BME280;9194;42.632;23.298;2022-12-07T22:04:55;92341.09;;;4.57;100.00
18137;BME280;9194;42.632;23.298;2022-12-07T22:09:56;92350.44;;;4.58;100.00
18137;BME280;9194;42.632;23.298;2022-12-07T22:14:58;92342.06;;;4.49;100.00
18137;BME280;9194;42.632;23.298;2022-12-07T22:20:06;92355.78;;;4.56;100.00
18137;BME280;9194;42.632;23.298;2022-12-07T22:25:08;92345.88;;;4.60;100.00
18137;BME280;9194;42.632;23.298;2022-12-07T22:30:11;92339.56;;;4.69;100.00
18137;BME280;9194;42.632;23.298;2022-12-07T22:35:12;92342.56;;;4.66;100.00
18137;BME280;9194;42.632;23.298;2022-12-07T22:40:14;92345.16;;;4.79;100.00
18137;BME280;9194;42.632;23.298;2022-12-07T22:45:16;92336.41;;;4.73;100.00
18137;BME280;9194;42.632;23.298;2022-12-07T22:50:18;92337.34;;;4.52;100.00
18137;BME280;9194;42.632;23.298;2022-12-07T22:55:19;92332.34;;;4.51;100.00
18137;BME280;9194;42.632;23.298;2022-12-07T23:00:20;92336.06;;;4.35;100.00
18137;BME280;9194;42.632;23.298;2022-12-07T23:05:23;92334.66;;;4.33;100.00
18137;BME280;9194;42.632;23.298;2022-12-07T23:10:24;92342.56;;;4.25;100.00
18137;BME280;9194;42.632;23.298;2022-12-07T23:15:26;92341.34;;;4.27;100.00
18137;BME280;9194;42.632;23.298;2022-12-07T23:20:27;92322.13;;;4.23;100.00
18137;BME280;9194;42.632;23.298;2022-12-07T23:25:29;92310.94;;;4.09;100.00
18137;BME280;9194;42.632;23.298;2022-12-07T23:30:30;92303.22;;;4.09;100.00
18137;BME280;9194;42.632;23.298;2022-12-07T23:35:31;92317.03;;;4.02;100.00
18137;BME280;9194;42.632;23.298;2022-12-07T23:40:33;92339.44;;;4.08;100.00
18137;BME280;9194;42.632;23.298;2022-12-07T23:45:34;92339.53;;;4.21;100.00
18137;BME280;9194;42.632;23.298;2022-12-07T23:50:35;92352.94;;;4.10;100.00
18137;BME280;9194;42.632;23.298;2022-12-07T23:55:37;92355.22;;;4.26;100.00
